Terminal Aerodrome Forecast
Issued by NWS

Home | Current Version | Previous Version | Text Only | Print | Product List | Glossary On
Versions: 1 2 3 4 5 6 7 8 9 10 11 12 13 14 15 16 17 18 19 20 21
328
FTUS43 KMQT 062342 CCA
TAFCMX
TAF COR
KCMX 062342Z 0700/0724 14005KT P6SM OVC045
     FM070300 15007KT 6SM -SN OVC030
     FM070500 17007KT 3SM -SN OVC018
     FM070900 20008KT 3SM -SN OVC013
     FM071700 23008KT 3SM -SN OVC008
     FM072300 31004KT 1 1/2SM -SN OVC008=

USA.gov is the U.S. government's official web portal to all federal, state and local government web resources and services.